sensor_id;sensor_type;location;lat;lon;timestamp;P1;durP1;ratioP1;P2;durP2;ratioP2
51854;SDS011;37895;53.240;6.572;2023-07-29T00:01:42;9.82;;;6.78;;
51854;SDS011;37895;53.240;6.572;2023-07-29T00:04:08;7.45;;;6.53;;
51854;SDS011;37895;53.240;6.572;2023-07-29T00:06:36;8.90;;;7.15;;
51854;SDS011;37895;53.240;6.572;2023-07-29T00:09:02;8.95;;;6.97;;
51854;SDS011;37895;53.240;6.572;2023-07-29T00:13:53;8.65;;;6.65;;
51854;SDS011;37895;53.240;6.572;2023-07-29T00:16:19;7.75;;;6.95;;
51854;SDS011;37895;53.240;6.572;2023-07-29T00:18:48;9.82;;;7.32;;
51854;SDS011;37895;53.240;6.572;2023-07-29T00:21:14;9.15;;;7.50;;
51854;SDS011;37895;53.240;6.572;2023-07-29T00:23:40;8.02;;;7.22;;
51854;SDS011;37895;53.240;6.572;2023-07-29T00:26:05;8.02;;;6.30;;
51854;SDS011;37895;53.240;6.572;2023-07-29T00:28:31;9.90;;;7.10;;
51854;SDS011;37895;53.240;6.572;2023-07-29T00:30:57;9.18;;;7.10;;
51854;SDS011;37895;53.240;6.572;2023-07-29T00:35:48;10.68;;;7.30;;
51854;SDS011;37895;53.240;6.572;2023-07-29T00:38:14;9.82;;;7.32;;
51854;SDS011;37895;53.240;6.572;2023-07-29T00:40:40;8.30;;;7.50;;
51854;SDS011;37895;53.240;6.572;2023-07-29T00:45:31;8.63;;;7.53;;
51854;SDS011;37895;53.240;6.572;2023-07-29T00:47:58;7.93;;;7.13;;
51854;SDS011;37895;53.240;6.572;2023-07-29T00:50:25;9.27;;;7.55;;
51854;SDS011;37895;53.240;6.572;2023-07-29T00:52:56;7.93;;;7.13;;
51854;SDS011;37895;53.240;6.572;2023-07-29T00:55:22;8.45;;;7.55;;
51854;SDS011;37895;53.240;6.572;2023-07-29T00:57:48;9.02;;;7.82;;
51854;SDS011;37895;53.240;6.572;2023-07-29T01:00:16;8.68;;;7.15;;
51854;SDS011;37895;53.240;6.572;2023-07-29T01:05:08;9.10;;;7.63;;
51854;SDS011;37895;53.240;6.572;2023-07-29T01:13:17;9.15;;;7.88;;
51854;SDS011;37895;53.240;6.572;2023-07-29T01:15:55;8.80;;;7.88;;
51854;SDS011;37895;53.240;6.572;2023-07-29T01:18:30;9.35;;;7.57;;
51854;SDS011;37895;53.240;6.572;2023-07-29T01:21:00;9.23;;;8.25;;
51854;SDS011;37895;53.240;6.572;2023-07-29T01:23:29;9.85;;;8.18;;
51854;SDS011;37895;53.240;6.572;2023-07-29T01:26:01;9.07;;;8.18;;
51854;SDS011;37895;53.240;6.572;2023-07-29T01:28:28;9.45;;;8.55;;
51854;SDS011;37895;53.240;6.572;2023-07-29T01:31:01;9.15;;;8.02;;
51854;SDS011;37895;53.240;6.572;2023-07-29T01:36:46;11.30;;;8.75;;
51854;SDS011;37895;53.240;6.572;2023-07-29T01:39:13;9.80;;;8.68;;
51854;SDS011;37895;53.240;6.572;2023-07-29T01:41:40;9.93;;;8.63;;
51854;SDS011;37895;53.240;6.572;2023-07-29T01:44:07;9.63;;;8.65;;
51854;SDS011;37895;53.240;6.572;2023-07-29T01:46:35;9.25;;;8.30;;
51854;SDS011;37895;53.240;6.572;2023-07-29T01:49:02;10.00;;;8.43;;
51854;SDS011;37895;53.240;6.572;2023-07-29T01:51:27;9.20;;;8.27;;
51854;SDS011;37895;53.240;6.572;2023-07-29T01:53:53;10.25;;;9.18;;
51854;SDS011;37895;53.240;6.572;2023-07-29T01:56:20;10.00;;;9.00;;
51854;SDS011;37895;53.240;6.572;2023-07-29T01:58:46;12.40;;;9.02;;
51854;SDS011;37895;53.240;6.572;2023-07-29T02:01:12;9.70;;;8.70;;
51854;SDS011;37895;53.240;6.572;2023-07-29T02:03:37;9.88;;;8.88;;
51854;SDS011;37895;53.240;6.572;2023-07-29T02:06:03;10.18;;;8.77;;
51854;SDS011;37895;53.240;6.572;2023-07-29T02:08:29;9.15;;;8.23;;
51854;SDS011;37895;53.240;6.572;2023-07-29T02:10:54;10.48;;;9.48;;
51854;SDS011;37895;53.240;6.572;2023-07-29T02:13:20;9.88;;;8.88;;
51854;SDS011;37895;53.240;6.572;2023-07-29T02:15:45;10.98;;;9.25;;
51854;SDS011;37895;53.240;6.572;2023-07-29T02:18:11;10.00;;;8.80;;
51854;SDS011;37895;53.240;6.572;2023-07-29T02:20:37;11.10;;;9.75;;
51854;SDS011;37895;53.240;6.572;2023-07-29T02:23:02;10.73;;;8.95;;
51854;SDS011;37895;53.240;6.572;2023-07-29T02:25:28;13.02;;;10.00;;
51854;SDS011;37895;53.240;6.572;2023-07-29T02:27:53;10.20;;;9.07;;
51854;SDS011;37895;53.240;6.572;2023-07-29T02:30:20;11.18;;;9.10;;
51854;SDS011;37895;53.240;6.572;2023-07-29T02:32:46;14.60;;;10.40;;
51854;SDS011;37895;53.240;6.572;2023-07-29T02:35:12;10.18;;;8.95;;
51854;SDS011;37895;53.240;6.572;2023-07-29T02:37:37;11.18;;;9.55;;
51854;SDS011;37895;53.240;6.572;2023-07-29T02:40:03;10.57;;;9.52;;
51854;SDS011;37895;53.240;6.572;2023-07-29T02:42:29;11.52;;;9.68;;
51854;SDS011;37895;53.240;6.572;2023-07-29T02:44:55;11.98;;;10.27;;
51854;SDS011;37895;53.240;6.572;2023-07-29T02:47:20;13.32;;;9.38;;
51854;SDS011;37895;53.240;6.572;2023-07-29T02:49:46;10.25;;;9.18;;
51854;SDS011;37895;53.240;6.572;2023-07-29T02:52:12;10.43;;;9.02;;
51854;SDS011;37895;53.240;6.572;2023-07-29T02:54:37;11.57;;;9.82;;
51854;SDS011;37895;53.240;6.572;2023-07-29T02:57:03;10.73;;;8.68;;
51854;SDS011;37895;53.240;6.572;2023-07-29T02:59:29;10.45;;;9.35;;
51854;SDS011;37895;53.240;6.572;2023-07-29T03:01:55;10.90;;;9.82;;
51854;SDS011;37895;53.240;6.572;2023-07-29T03:04:20;12.18;;;9.63;;
51854;SDS011;37895;53.240;6.572;2023-07-29T03:06:46;11.65;;;9.68;;
51854;SDS011;37895;53.240;6.572;2023-07-29T03:09:13;13.23;;;10.98;;
51854;SDS011;37895;53.240;6.572;2023-07-29T03:11:39;11.52;;;10.10;;
51854;SDS011;37895;53.240;6.572;2023-07-29T03:14:05;11.75;;;9.18;;
51854;SDS011;37895;53.240;6.572;2023-07-29T03:16:31;12.43;;;10.10;;
51854;SDS011;37895;53.240;6.572;2023-07-29T03:18:56;10.93;;;9.68;;
51854;SDS011;37895;53.240;6.572;2023-07-29T03:23:48;10.55;;;9.45;;
51854;SDS011;37895;53.240;6.572;2023-07-29T03:26:13;12.70;;;9.75;;
51854;SDS011;37895;53.240;6.572;2023-07-29T03:28:40;9.95;;;8.60;;
51854;SDS011;37895;53.240;6.572;2023-07-29T03:31:06;11.52;;;9.25;;
51854;SDS011;37895;53.240;6.572;2023-07-29T03:33:32;12.45;;;10.00;;
51854;SDS011;37895;53.240;6.572;2023-07-29T03:35:58;10.82;;;9.05;;
51854;SDS011;37895;53.240;6.572;2023-07-29T03:38:24;11.05;;;9.38;;
51854;SDS011;37895;53.240;6.572;2023-07-29T03:40:50;10.48;;;8.93;;
51854;SDS011;37895;53.240;6.572;2023-07-29T03:43:16;12.52;;;9.95;;
51854;SDS011;37895;53.240;6.572;2023-07-29T03:45:41;12.50;;;9.35;;
51854;SDS011;37895;53.240;6.572;2023-07-29T03:48:07;10.23;;;9.20;;
51854;SDS011;37895;53.240;6.572;2023-07-29T03:50:34;10.40;;;9.30;;
51854;SDS011;37895;53.240;6.572;2023-07-29T03:53:01;12.18;;;9.10;;
51854;SDS011;37895;53.240;6.572;2023-07-29T03:55:27;10.73;;;9.43;;
51854;SDS011;37895;53.240;6.572;2023-07-29T03:57:55;11.10;;;9.95;;
51854;SDS011;37895;53.240;6.572;2023-07-29T04:00:24;10.27;;;8.20;;
51854;SDS011;37895;53.240;6.572;2023-07-29T04:02:49;11.73;;;9.23;;
51854;SDS011;37895;53.240;6.572;2023-07-29T04:05:15;11.90;;;9.15;;
51854;SDS011;37895;53.240;6.572;2023-07-29T04:07:41;12.13;;;8.77;;
51854;SDS011;37895;53.240;6.572;2023-07-29T04:10:07;13.00;;;8.93;;
51854;SDS011;37895;53.240;6.572;2023-07-29T04:14:58;11.15;;;8.77;;
51854;SDS011;37895;53.240;6.572;2023-07-29T04:17:24;11.55;;;7.97;;
51854;SDS011;37895;53.240;6.572;2023-07-29T04:19:50;9.80;;;8.05;;
51854;SDS011;37895;53.240;6.572;2023-07-29T04:22:16;12.88;;;8.50;;
51854;SDS011;37895;53.240;6.572;2023-07-29T04:27:07;12.88;;;8.70;;
51854;SDS011;37895;53.240;6.572;2023-07-29T04:29:33;7.65;;;6.85;;
51854;SDS011;37895;53.240;6.572;2023-07-29T04:32:00;8.57;;;7.30;;
51854;SDS011;37895;53.240;6.572;2023-07-29T04:36:52;9.43;;;7.18;;
51854;SDS011;37895;53.240;6.572;2023-07-29T04:39:18;10.40;;;7.53;;
51854;SDS011;37895;53.240;6.572;2023-07-29T04:41:43;11.70;;;7.75;;
51854;SDS011;37895;53.240;6.572;2023-07-29T04:44:09;10.82;;;7.13;;
51854;SDS011;37895;53.240;6.572;2023-07-29T04:46:35;11.10;;;7.00;;
51854;SDS011;37895;53.240;6.572;2023-07-29T04:51:27;9.63;;;6.70;;
51854;SDS011;37895;53.240;6.572;2023-07-29T04:53:53;7.80;;;5.88;;
51854;SDS011;37895;53.240;6.572;2023-07-29T04:56:19;9.35;;;7.30;;
51854;SDS011;37895;53.240;6.572;2023-07-29T04:58:44;7.43;;;6.10;;
51854;SDS011;37895;53.240;6.572;2023-07-29T05:01:10;9.88;;;6.30;;
51854;SDS011;37895;53.240;6.572;2023-07-29T05:03:36;7.95;;;5.57;;
51854;SDS011;37895;53.240;6.572;2023-07-29T05:06:03;7.75;;;5.78;;
51854;SDS011;37895;53.240;6.572;2023-07-29T05:08:29;7.70;;;5.72;;
51854;SDS011;37895;53.240;6.572;2023-07-29T05:10:54;10.43;;;5.32;;
51854;SDS011;37895;53.240;6.572;2023-07-29T05:15:49;6.10;;;5.00;;
51854;SDS011;37895;53.240;6.572;2023-07-29T05:18:15;6.78;;;4.70;;
51854;SDS011;37895;53.240;6.572;2023-07-29T05:20:41;7.97;;;5.20;;
51854;SDS011;37895;53.240;6.572;2023-07-29T05:23:07;8.45;;;4.95;;
51854;SDS011;37895;53.240;6.572;2023-07-29T05:25:33;7.20;;;5.20;;
51854;SDS011;37895;53.240;6.572;2023-07-29T05:28:01;6.93;;;4.68;;
51854;SDS011;37895;53.240;6.572;2023-07-29T05:32:56;6.05;;;4.55;;
51854;SDS011;37895;53.240;6.572;2023-07-29T05:35:22;6.65;;;4.20;;
51854;SDS011;37895;53.240;6.572;2023-07-29T05:37:48;6.95;;;4.47;;
51854;SDS011;37895;53.240;6.572;2023-07-29T05:40:13;6.68;;;3.53;;
51854;SDS011;37895;53.240;6.572;2023-07-29T05:42:39;5.70;;;4.10;;
51854;SDS011;37895;53.240;6.572;2023-07-29T05:45:05;8.38;;;4.03;;
51854;SDS011;37895;53.240;6.572;2023-07-29T05:47:34;6.15;;;3.95;;
51854;SDS011;37895;53.240;6.572;2023-07-29T05:49:59;5.18;;;4.05;;
51854;SDS011;37895;53.240;6.572;2023-07-29T05:52:29;5.80;;;3.80;;
51854;SDS011;37895;53.240;6.572;2023-07-29T05:54:55;7.15;;;3.92;;
51854;SDS011;37895;53.240;6.572;2023-07-29T05:57:21;6.30;;;4.15;;
51854;SDS011;37895;53.240;6.572;2023-07-29T05:59:46;8.27;;;4.07;;
51854;SDS011;37895;53.240;6.572;2023-07-29T06:02:12;6.97;;;4.18;;
51854;SDS011;37895;53.240;6.572;2023-07-29T06:04:37;7.07;;;4.63;;
51854;SDS011;37895;53.240;6.572;2023-07-29T06:07:03;6.20;;;3.85;;
51854;SDS011;37895;53.240;6.572;2023-07-29T06:09:29;5.68;;;3.70;;
51854;SDS011;37895;53.240;6.572;2023-07-29T06:11:55;8.23;;;4.55;;
51854;SDS011;37895;53.240;6.572;2023-07-29T06:14:21;4.80;;;3.55;;
51854;SDS011;37895;53.240;6.572;2023-07-29T06:16:46;5.88;;;3.95;;
51854;SDS011;37895;53.240;6.572;2023-07-29T06:19:12;6.00;;;3.75;;
51854;SDS011;37895;53.240;6.572;2023-07-29T06:21:38;7.18;;;4.47;;
51854;SDS011;37895;53.240;6.572;2023-07-29T06:24:03;6.93;;;4.05;;
51854;SDS011;37895;53.240;6.572;2023-07-29T06:26:29;5.72;;;4.40;;
51854;SDS011;37895;53.240;6.572;2023-07-29T06:28:55;8.63;;;4.05;;
51854;SDS011;37895;53.240;6.572;2023-07-29T06:31:21;7.63;;;4.50;;
51854;SDS011;37895;53.240;6.572;2023-07-29T06:33:47;7.53;;;4.90;;
51854;SDS011;37895;53.240;6.572;2023-07-29T06:36:13;8.02;;;4.35;;
51854;SDS011;37895;53.240;6.572;2023-07-29T06:38:39;6.18;;;4.55;;
51854;SDS011;37895;53.240;6.572;2023-07-29T06:41:05;6.80;;;4.07;;
51854;SDS011;37895;53.240;6.572;2023-07-29T06:43:31;6.47;;;4.07;;
51854;SDS011;37895;53.240;6.572;2023-07-29T06:45:57;10.60;;;4.28;;
51854;SDS011;37895;53.240;6.572;2023-07-29T06:48:22;6.63;;;4.10;;
51854;SDS011;37895;53.240;6.572;2023-07-29T06:50:48;8.32;;;4.22;;
51854;SDS011;37895;53.240;6.572;2023-07-29T06:53:15;7.88;;;4.20;;
51854;SDS011;37895;53.240;6.572;2023-07-29T06:58:07;7.63;;;3.97;;
51854;SDS011;37895;53.240;6.572;2023-07-29T07:00:33;6.95;;;3.88;;
51854;SDS011;37895;53.240;6.572;2023-07-29T07:02:58;7.15;;;4.35;;
51854;SDS011;37895;53.240;6.572;2023-07-29T07:05:24;7.78;;;4.22;;
51854;SDS011;37895;53.240;6.572;2023-07-29T07:07:49;14.63;;;5.55;;
51854;SDS011;37895;53.240;6.572;2023-07-29T07:10:15;8.10;;;4.22;;
51854;SDS011;37895;53.240;6.572;2023-07-29T07:12:41;8.52;;;5.05;;
51854;SDS011;37895;53.240;6.572;2023-07-29T07:15:07;10.07;;;4.15;;
51854;SDS011;37895;53.240;6.572;2023-07-29T07:19:58;8.40;;;4.47;;
51854;SDS011;37895;53.240;6.572;2023-07-29T07:22:24;7.95;;;4.10;;
51854;SDS011;37895;53.240;6.572;2023-07-29T07:24:50;8.40;;;4.03;;
51854;SDS011;37895;53.240;6.572;2023-07-29T07:27:15;9.30;;;4.63;;
51854;SDS011;37895;53.240;6.572;2023-07-29T07:29:41;12.05;;;4.57;;
51854;SDS011;37895;53.240;6.572;2023-07-29T07:32:07;10.95;;;4.30;;
51854;SDS011;37895;53.240;6.572;2023-07-29T07:34:32;12.07;;;4.50;;
51854;SDS011;37895;53.240;6.572;2023-07-29T07:36:59;9.02;;;4.60;;
51854;SDS011;37895;53.240;6.572;2023-07-29T07:39:25;8.73;;;4.82;;
51854;SDS011;37895;53.240;6.572;2023-07-29T07:41:51;7.00;;;3.83;;
51854;SDS011;37895;53.240;6.572;2023-07-29T07:44:17;9.02;;;5.05;;
51854;SDS011;37895;53.240;6.572;2023-07-29T07:46:44;7.13;;;3.70;;
51854;SDS011;37895;53.240;6.572;2023-07-29T07:49:10;5.93;;;3.92;;
51854;SDS011;37895;53.240;6.572;2023-07-29T07:51:36;9.60;;;4.05;;
51854;SDS011;37895;53.240;6.572;2023-07-29T07:54:01;8.05;;;3.70;;
51854;SDS011;37895;53.240;6.572;2023-07-29T07:58:53;8.70;;;3.80;;
51854;SDS011;37895;53.240;6.572;2023-07-29T08:01:18;7.57;;;3.75;;
51854;SDS011;37895;53.240;6.572;2023-07-29T08:03:44;8.85;;;4.15;;
51854;SDS011;37895;53.240;6.572;2023-07-29T08:08:35;9.90;;;4.53;;
51854;SDS011;37895;53.240;6.572;2023-07-29T08:13:27;5.63;;;3.45;;
51854;SDS011;37895;53.240;6.572;2023-07-29T08:15:52;6.88;;;3.55;;
51854;SDS011;37895;53.240;6.572;2023-07-29T08:18:18;7.28;;;3.45;;
51854;SDS011;37895;53.240;6.572;2023-07-29T08:20:54;8.63;;;3.88;;
51854;SDS011;37895;53.240;6.572;2023-07-29T08:23:23;7.80;;;3.88;;
51854;SDS011;37895;53.240;6.572;2023-07-29T08:25:53;6.93;;;3.63;;
51854;SDS011;37895;53.240;6.572;2023-07-29T08:28:21;8.73;;;4.25;;
51854;SDS011;37895;53.240;6.572;2023-07-29T08:30:47;12.63;;;3.97;;
51854;SDS011;37895;53.240;6.572;2023-07-29T08:33:13;8.15;;;3.97;;
51854;SDS011;37895;53.240;6.572;2023-07-29T08:35:39;8.80;;;4.03;;
51854;SDS011;37895;53.240;6.572;2023-07-29T08:40:31;7.38;;;3.10;;
51854;SDS011;37895;53.240;6.572;2023-07-29T08:42:59;8.27;;;2.92;;
51854;SDS011;37895;53.240;6.572;2023-07-29T08:45:29;6.63;;;2.78;;
51854;SDS011;37895;53.240;6.572;2023-07-29T08:47:59;6.93;;;3.15;;
51854;SDS011;37895;53.240;6.572;2023-07-29T08:50:29;5.75;;;3.05;;
51854;SDS011;37895;53.240;6.572;2023-07-29T08:52:57;8.32;;;3.78;;
51854;SDS011;37895;53.240;6.572;2023-07-29T08:55:25;5.60;;;2.80;;
51854;SDS011;37895;53.240;6.572;2023-07-29T09:00:17;5.82;;;2.70;;
51854;SDS011;37895;53.240;6.572;2023-07-29T09:02:44;6.40;;;2.55;;
51854;SDS011;37895;53.240;6.572;2023-07-29T09:07:35;7.03;;;2.65;;
51854;SDS011;37895;53.240;6.572;2023-07-29T09:10:02;7.25;;;2.60;;
51854;SDS011;37895;53.240;6.572;2023-07-29T09:14:53;5.18;;;2.40;;
51854;SDS011;37895;53.240;6.572;2023-07-29T09:17:19;4.50;;;2.20;;
51854;SDS011;37895;53.240;6.572;2023-07-29T09:19:50;7.18;;;3.28;;
51854;SDS011;37895;53.240;6.572;2023-07-29T09:22:19;5.93;;;2.45;;
51854;SDS011;37895;53.240;6.572;2023-07-29T09:24:46;6.25;;;2.38;;
51854;SDS011;37895;53.240;6.572;2023-07-29T09:27:27;7.20;;;2.25;;
51854;SDS011;37895;53.240;6.572;2023-07-29T09:29:56;5.82;;;2.08;;
51854;SDS011;37895;53.240;6.572;2023-07-29T09:34:49;4.40;;;2.00;;
51854;SDS011;37895;53.240;6.572;2023-07-29T09:37:18;6.65;;;1.88;;
51854;SDS011;37895;53.240;6.572;2023-07-29T09:39:46;2.30;;;1.60;;
51854;SDS011;37895;53.240;6.572;2023-07-29T09:42:19;7.63;;;1.90;;
51854;SDS011;37895;53.240;6.572;2023-07-29T09:47:20;6.05;;;2.20;;
51854;SDS011;37895;53.240;6.572;2023-07-29T09:49:47;5.63;;;2.20;;
51854;SDS011;37895;53.240;6.572;2023-07-29T09:54:46;3.90;;;1.85;;
51854;SDS011;37895;53.240;6.572;2023-07-29T09:57:16;4.72;;;2.30;;
51854;SDS011;37895;53.240;6.572;2023-07-29T09:59:52;5.22;;;1.70;;
51854;SDS011;37895;53.240;6.572;2023-07-29T10:02:22;4.22;;;1.95;;
51854;SDS011;37895;53.240;6.572;2023-07-29T10:04:50;5.57;;;1.70;;
51854;SDS011;37895;53.240;6.572;2023-07-29T10:07:17;5.40;;;1.80;;
51854;SDS011;37895;53.240;6.572;2023-07-29T10:09:43;3.25;;;1.60;;
51854;SDS011;37895;53.240;6.572;2023-07-29T10:12:10;3.05;;;1.83;;
51854;SDS011;37895;53.240;6.572;2023-07-29T10:17:03;3.00;;;1.50;;
51854;SDS011;37895;53.240;6.572;2023-07-29T10:19:30;7.45;;;2.10;;
51854;SDS011;37895;53.240;6.572;2023-07-29T10:21:57;5.35;;;1.80;;
51854;SDS011;37895;53.240;6.572;2023-07-29T10:24:31;2.65;;;1.77;;
51854;SDS011;37895;53.240;6.572;2023-07-29T10:26:58;6.25;;;2.00;;
51854;SDS011;37895;53.240;6.572;2023-07-29T10:29:28;3.80;;;1.90;;
51854;SDS011;37895;53.240;6.572;2023-07-29T10:31:57;5.25;;;1.67;;
51854;SDS011;37895;53.240;6.572;2023-07-29T10:34:25;4.82;;;1.70;;
51854;SDS011;37895;53.240;6.572;2023-07-29T10:36:52;3.90;;;1.75;;
51854;SDS011;37895;53.240;6.572;2023-07-29T10:39:19;5.55;;;1.77;;
51854;SDS011;37895;53.240;6.572;2023-07-29T10:47:14;3.55;;;1.73;;
51854;SDS011;37895;53.240;6.572;2023-07-29T10:49:43;3.35;;;1.65;;
51854;SDS011;37895;53.240;6.572;2023-07-29T10:52:14;6.82;;;1.85;;
51854;SDS011;37895;53.240;6.572;2023-07-29T10:54:42;4.60;;;1.67;;
51854;SDS011;37895;53.240;6.572;2023-07-29T10:57:54;5.97;;;2.00;;
51854;SDS011;37895;53.240;6.572;2023-07-29T11:00:02;5.20;;;2.17;;
51854;SDS011;37895;53.240;6.572;2023-07-29T11:02:36;4.57;;;1.60;;
51854;SDS011;37895;53.240;6.572;2023-07-29T11:05:06;3.13;;;1.55;;
51854;SDS011;37895;53.240;6.572;2023-07-29T11:07:44;6.57;;;1.70;;
51854;SDS011;37895;53.240;6.572;2023-07-29T11:10:14;3.83;;;1.90;;
51854;SDS011;37895;53.240;6.572;2023-07-29T11:15:25;6.13;;;2.15;;
51854;SDS011;37895;53.240;6.572;2023-07-29T11:18:00;5.30;;;1.90;;
51854;SDS011;37895;53.240;6.572;2023-07-29T11:20:27;6.55;;;2.10;;
51854;SDS011;37895;53.240;6.572;2023-07-29T11:22:54;8.57;;;2.70;;
51854;SDS011;37895;53.240;6.572;2023-07-29T11:25:22;11.10;;;3.03;;
51854;SDS011;37895;53.240;6.572;2023-07-29T11:27:50;5.10;;;2.00;;
51854;SDS011;37895;53.240;6.572;2023-07-29T11:30:17;6.28;;;2.30;;
51854;SDS011;37895;53.240;6.572;2023-07-29T11:35:13;3.85;;;1.83;;
51854;SDS011;37895;53.240;6.572;2023-07-29T11:37:46;5.00;;;1.90;;
51854;SDS011;37895;53.240;6.572;2023-07-29T11:40:17;5.57;;;2.22;;
51854;SDS011;37895;53.240;6.572;2023-07-29T11:42:44;6.55;;;2.22;;
51854;SDS011;37895;53.240;6.572;2023-07-29T11:45:11;5.03;;;2.42;;
51854;SDS011;37895;53.240;6.572;2023-07-29T11:47:38;5.05;;;2.30;;
51854;SDS011;37895;53.240;6.572;2023-07-29T11:52:31;3.78;;;2.10;;
51854;SDS011;37895;53.240;6.572;2023-07-29T11:54:58;5.63;;;2.15;;
51854;SDS011;37895;53.240;6.572;2023-07-29T11:57:26;4.63;;;2.03;;
51854;SDS011;37895;53.240;6.572;2023-07-29T12:02:18;5.57;;;2.05;;
51854;SDS011;37895;53.240;6.572;2023-07-29T12:04:46;4.30;;;2.13;;
51854;SDS011;37895;53.240;6.572;2023-07-29T12:07:12;3.45;;;2.03;;
51854;SDS011;37895;53.240;6.572;2023-07-29T12:09:39;4.28;;;2.10;;
51854;SDS011;37895;53.240;6.572;2023-07-29T12:12:06;5.05;;;2.00;;
51854;SDS011;37895;53.240;6.572;2023-07-29T12:17:02;5.18;;;2.30;;
51854;SDS011;37895;53.240;6.572;2023-07-29T12:19:35;6.63;;;2.60;;
51854;SDS011;37895;53.240;6.572;2023-07-29T12:22:02;6.05;;;2.33;;
51854;SDS011;37895;53.240;6.572;2023-07-29T12:24:33;8.70;;;2.90;;
51854;SDS011;37895;53.240;6.572;2023-07-29T12:27:00;5.63;;;2.35;;
51854;SDS011;37895;53.240;6.572;2023-07-29T12:29:26;4.78;;;2.10;;
51854;SDS011;37895;53.240;6.572;2023-07-29T12:31:59;3.30;;;1.85;;
51854;SDS011;37895;53.240;6.572;2023-07-29T12:34:29;3.03;;;1.90;;
51854;SDS011;37895;53.240;6.572;2023-07-29T12:36:56;3.05;;;2.10;;
51854;SDS011;37895;53.240;6.572;2023-07-29T12:39:24;3.90;;;1.90;;
51854;SDS011;37895;53.240;6.572;2023-07-29T12:41:51;4.72;;;2.30;;
51854;SDS011;37895;53.240;6.572;2023-07-29T12:44:22;4.78;;;1.98;;
51854;SDS011;37895;53.240;6.572;2023-07-29T12:46:48;4.20;;;2.00;;
51854;SDS011;37895;53.240;6.572;2023-07-29T12:51:47;4.97;;;2.10;;
51854;SDS011;37895;53.240;6.572;2023-07-29T12:56:39;4.35;;;2.10;;
51854;SDS011;37895;53.240;6.572;2023-07-29T13:01:30;5.80;;;2.00;;
51854;SDS011;37895;53.240;6.572;2023-07-29T13:06:22;2.95;;;2.13;;
51854;SDS011;37895;53.240;6.572;2023-07-29T13:08:48;3.03;;;2.10;;
51854;SDS011;37895;53.240;6.572;2023-07-29T13:13:39;4.00;;;1.60;;
51854;SDS011;37895;53.240;6.572;2023-07-29T13:18:31;2.80;;;2.00;;
51854;SDS011;37895;53.240;6.572;2023-07-29T13:20:57;5.00;;;2.33;;
51854;SDS011;37895;53.240;6.572;2023-07-29T13:25:49;6.60;;;2.75;;
51854;SDS011;37895;53.240;6.572;2023-07-29T13:30:40;3.80;;;2.22;;
51854;SDS011;37895;53.240;6.572;2023-07-29T13:35:32;6.28;;;3.28;;
51854;SDS011;37895;53.240;6.572;2023-07-29T13:40:23;5.07;;;2.00;;
51854;SDS011;37895;53.240;6.572;2023-07-29T13:42:49;3.28;;;2.17;;
51854;SDS011;37895;53.240;6.572;2023-07-29T13:47:40;4.50;;;1.88;;
51854;SDS011;37895;53.240;6.572;2023-07-29T13:52:33;5.85;;;2.20;;
51854;SDS011;37895;53.240;6.572;2023-07-29T13:57:24;4.25;;;1.90;;
51854;SDS011;37895;53.240;6.572;2023-07-29T13:59:50;3.40;;;1.90;;
51854;SDS011;37895;53.240;6.572;2023-07-29T14:04:41;3.95;;;2.00;;
51854;SDS011;37895;53.240;6.572;2023-07-29T14:09:32;5.30;;;2.63;;
51854;SDS011;37895;53.240;6.572;2023-07-29T14:14:23;4.47;;;1.95;;
51854;SDS011;37895;53.240;6.572;2023-07-29T14:19:14;6.70;;;2.60;;
51854;SDS011;37895;53.240;6.572;2023-07-29T14:24:05;5.47;;;2.55;;
51854;SDS011;37895;53.240;6.572;2023-07-29T14:28:57;5.80;;;2.65;;
51854;SDS011;37895;53.240;6.572;2023-07-29T14:33:48;5.20;;;2.05;;
51854;SDS011;37895;53.240;6.572;2023-07-29T14:36:14;6.55;;;2.25;;
51854;SDS011;37895;53.240;6.572;2023-07-29T14:38:43;5.70;;;2.08;;
51854;SDS011;37895;53.240;6.572;2023-07-29T14:43:34;4.05;;;2.30;;
51854;SDS011;37895;53.240;6.572;2023-07-29T14:48:26;5.03;;;2.20;;
51854;SDS011;37895;53.240;6.572;2023-07-29T14:53:17;6.10;;;2.28;;
51854;SDS011;37895;53.240;6.572;2023-07-29T14:58:08;4.88;;;2.10;;
51854;SDS011;37895;53.240;6.572;2023-07-29T15:02:59;5.97;;;2.17;;
51854;SDS011;37895;53.240;6.572;2023-07-29T15:05:26;5.78;;;2.28;;
51854;SDS011;37895;53.240;6.572;2023-07-29T15:10:17;5.70;;;2.22;;
51854;SDS011;37895;53.240;6.572;2023-07-29T15:15:09;5.80;;;2.25;;
51854;SDS011;37895;53.240;6.572;2023-07-29T15:17:36;5.85;;;2.28;;
51854;SDS011;37895;53.240;6.572;2023-07-29T15:22:31;3.28;;;1.90;;
51854;SDS011;37895;53.240;6.572;2023-07-29T15:24:57;4.40;;;1.80;;
51854;SDS011;37895;53.240;6.572;2023-07-29T15:27:25;3.65;;;1.80;;
51854;SDS011;37895;53.240;6.572;2023-07-29T15:29:54;5.13;;;1.83;;
51854;SDS011;37895;53.240;6.572;2023-07-29T15:34:46;4.45;;;1.77;;
51854;SDS011;37895;53.240;6.572;2023-07-29T15:37:12;4.28;;;1.90;;
51854;SDS011;37895;53.240;6.572;2023-07-29T15:42:04;2.63;;;1.40;;
51854;SDS011;37895;53.240;6.572;2023-07-29T15:44:29;3.33;;;1.60;;
51854;SDS011;37895;53.240;6.572;2023-07-29T15:49:21;3.42;;;1.35;;
51854;SDS011;37895;53.240;6.572;2023-07-29T15:51:48;4.22;;;1.80;;
51854;SDS011;37895;53.240;6.572;2023-07-29T15:56:39;3.17;;;1.40;;
51854;SDS011;37895;53.240;6.572;2023-07-29T15:59:06;3.65;;;1.60;;
51854;SDS011;37895;53.240;6.572;2023-07-29T16:01:32;12.20;;;2.00;;
51854;SDS011;37895;53.240;6.572;2023-07-29T16:03:58;4.18;;;1.70;;
51854;SDS011;37895;53.240;6.572;2023-07-29T16:06:25;3.75;;;1.60;;
51854;SDS011;37895;53.240;6.572;2023-07-29T16:08:51;4.10;;;1.52;;
51854;SDS011;37895;53.240;6.572;2023-07-29T16:13:43;4.70;;;1.63;;
51854;SDS011;37895;53.240;6.572;2023-07-29T16:18:35;3.42;;;1.42;;
51854;SDS011;37895;53.240;6.572;2023-07-29T16:23:29;3.50;;;1.50;;
51854;SDS011;37895;53.240;6.572;2023-07-29T16:25:56;5.40;;;1.60;;
51854;SDS011;37895;53.240;6.572;2023-07-29T16:28:22;5.30;;;1.52;;
51854;SDS011;37895;53.240;6.572;2023-07-29T16:33:13;4.70;;;1.58;;
51854;SDS011;37895;53.240;6.572;2023-07-29T16:38:05;6.13;;;1.85;;
51854;SDS011;37895;53.240;6.572;2023-07-29T16:40:31;4.40;;;1.40;;
51854;SDS011;37895;53.240;6.572;2023-07-29T16:42:57;3.15;;;1.48;;
51854;SDS011;37895;53.240;6.572;2023-07-29T16:47:48;5.15;;;1.60;;
51854;SDS011;37895;53.240;6.572;2023-07-29T16:50:14;4.28;;;1.67;;
51854;SDS011;37895;53.240;6.572;2023-07-29T16:55:06;3.60;;;1.50;;
51854;SDS011;37895;53.240;6.572;2023-07-29T16:57:32;3.47;;;1.60;;
51854;SDS011;37895;53.240;6.572;2023-07-29T17:02:23;4.88;;;1.60;;
51854;SDS011;37895;53.240;6.572;2023-07-29T17:07:15;1.98;;;1.15;;
51854;SDS011;37895;53.240;6.572;2023-07-29T17:09:42;3.25;;;1.40;;
51854;SDS011;37895;53.240;6.572;2023-07-29T17:12:10;3.53;;;1.42;;
51854;SDS011;37895;53.240;6.572;2023-07-29T17:14:36;2.15;;;1.30;;
51854;SDS011;37895;53.240;6.572;2023-07-29T17:19:27;2.45;;;1.20;;
51854;SDS011;37895;53.240;6.572;2023-07-29T17:24:18;3.55;;;1.38;;
51854;SDS011;37895;53.240;6.572;2023-07-29T17:29:09;2.97;;;1.30;;
51854;SDS011;37895;53.240;6.572;2023-07-29T17:34:01;2.58;;;1.55;;
51854;SDS011;37895;53.240;6.572;2023-07-29T17:38:52;3.30;;;1.48;;
51854;SDS011;37895;53.240;6.572;2023-07-29T17:43:43;2.78;;;1.45;;
51854;SDS011;37895;53.240;6.572;2023-07-29T17:46:12;3.85;;;1.58;;
51854;SDS011;37895;53.240;6.572;2023-07-29T17:48:41;3.25;;;1.40;;
51854;SDS011;37895;53.240;6.572;2023-07-29T17:51:07;4.00;;;1.40;;
51854;SDS011;37895;53.240;6.572;2023-07-29T17:56:00;2.30;;;1.30;;
51854;SDS011;37895;53.240;6.572;2023-07-29T18:00:51;2.88;;;1.40;;
51854;SDS011;37895;53.240;6.572;2023-07-29T18:03:17;2.72;;;1.40;;
51854;SDS011;37895;53.240;6.572;2023-07-29T18:05:43;3.50;;;1.25;;
51854;SDS011;37895;53.240;6.572;2023-07-29T18:10:39;3.50;;;1.60;;